createdAt,value
2022-10-31T00:01:26.984Z,11.23
2022-10-31T00:03:53.957Z,10.65
2022-10-31T00:06:20.661Z,10.38
2022-10-31T00:08:56.459Z,10.75
2022-10-31T00:11:23.854Z,11.55
2022-10-31T00:13:50.563Z,11.23
2022-10-31T00:16:19.238Z,11.35
2022-10-31T00:18:50.313Z,11.00
2022-10-31T00:21:17.371Z,10.35
2022-10-31T00:23:44.173Z,11.10
2022-10-31T00:26:11.030Z,11.13
2022-10-31T00:28:37.692Z,11.10
2022-10-31T00:31:07.148Z,10.98
2022-10-31T00:33:38.557Z,10.35
2022-10-31T00:36:07.032Z,10.18
2022-10-31T00:38:34.457Z,10.95
2022-10-31T00:41:01.139Z,9.48
2022-10-31T00:43:27.847Z,10.68
2022-10-31T00:45:54.885Z,10.15
2022-10-31T00:48:21.688Z,10.60
2022-10-31T00:50:48.370Z,10.10
2022-10-31T00:53:15.419Z,10.27
2022-10-31T00:55:42.068Z,9.93
2022-10-31T00:58:08.948Z,10.18
2022-10-31T01:00:35.830Z,10.48
2022-10-31T01:03:02.695Z,9.85
2022-10-31T01:05:29.569Z,9.57
2022-10-31T01:07:56.263Z,9.60
2022-10-31T01:10:23.557Z,9.70
2022-10-31T01:12:50.788Z,11.27
2022-10-31T01:15:23.723Z,10.38
2022-10-31T01:17:50.798Z,10.73
2022-10-31T01:20:18.533Z,10.82
2022-10-31T01:22:45.706Z,10.02
2022-10-31T01:25:12.618Z,9.77
2022-10-31T01:27:39.348Z,10.45
2022-10-31T01:30:07.043Z,9.80
2022-10-31T01:32:33.734Z,10.15
2022-10-31T01:35:00.466Z,10.07
2022-10-31T01:37:27.180Z,10.30
2022-10-31T01:39:53.799Z,10.52
2022-10-31T01:42:23.058Z,10.15
2022-10-31T01:44:54.491Z,9.35
2022-10-31T01:47:28.423Z,9.70
2022-10-31T01:50:00.375Z,9.73
2022-10-31T01:52:48.140Z,10.00
2022-10-31T01:55:34.363Z,9.70
2022-10-31T01:58:25.362Z,9.45
2022-10-31T02:01:03.271Z,10.38
2022-10-31T02:03:34.006Z,9.35
2022-10-31T02:06:01.098Z,10.20
2022-10-31T02:08:30.510Z,10.65
2022-10-31T02:11:02.622Z,9.77
2022-10-31T02:13:30.508Z,10.25
2022-10-31T02:15:59.364Z,10.13
2022-10-31T02:18:28.938Z,10.77
2022-10-31T02:21:21.819Z,9.15
2022-10-31T02:23:51.213Z,9.23
2022-10-31T02:26:44.337Z,10.23
2022-10-31T02:29:28.407Z,9.90
2022-10-31T02:32:04.050Z,9.25
2022-10-31T02:37:15.021Z,9.18
2022-10-31T02:39:50.700Z,9.45
2022-10-31T02:42:44.794Z,8.95
2022-10-31T02:45:43.438Z,9.80
2022-10-31T02:48:16.668Z,8.80
2022-10-31T02:50:53.635Z,10.77
2022-10-31T02:53:20.315Z,9.20
2022-10-31T02:56:10.056Z,9.60
2022-10-31T02:58:41.241Z,10.77
2022-10-31T03:01:23.726Z,8.95
2022-10-31T03:04:15.650Z,9.73
2022-10-31T03:07:00.659Z,9.98
2022-10-31T03:10:12.053Z,10.00
2022-10-31T03:13:06.446Z,9.55
2022-10-31T03:15:36.114Z,10.18
2022-10-31T03:18:10.756Z,9.35
2022-10-31T03:20:44.703Z,9.97
2022-10-31T03:23:15.746Z,9.13
2022-10-31T03:25:44.235Z,10.10
2022-10-31T03:28:16.025Z,9.90
2022-10-31T03:30:45.265Z,9.85
2022-10-31T03:33:17.638Z,10.10
2022-10-31T03:35:47.400Z,9.98
2022-10-31T03:38:15.684Z,9.73
2022-10-31T03:40:45.524Z,10.02
2022-10-31T03:43:17.615Z,9.70
2022-10-31T03:45:48.387Z,9.63
2022-10-31T03:48:17.208Z,10.32
2022-10-31T03:51:01.786Z,9.43
2022-10-31T03:53:36.157Z,9.15
2022-10-31T03:56:11.579Z,9.45
2022-10-31T03:58:46.206Z,9.68
2022-10-31T04:01:16.810Z,10.98
2022-10-31T04:03:44.581Z,9.20
2022-10-31T04:06:15.470Z,9.40
2022-10-31T04:08:56.778Z,9.68
2022-10-31T04:11:28.397Z,9.55
2022-10-31T04:13:57.322Z,9.32
2022-10-31T04:16:25.823Z,8.80
2022-10-31T04:18:52.913Z,9.63
2022-10-31T04:21:19.663Z,10.02
2022-10-31T04:23:46.358Z,9.38
2022-10-31T04:26:13.435Z,9.27
2022-10-31T04:28:40.175Z,9.20
2022-10-31T04:31:06.917Z,9.75
2022-10-31T04:33:33.555Z,9.85
2022-10-31T04:36:00.232Z,10.07
2022-10-31T04:38:26.911Z,9.80
2022-10-31T04:40:53.682Z,11.05
2022-10-31T04:45:52.142Z,10.38
2022-10-31T04:48:18.853Z,10.07
2022-10-31T04:50:45.906Z,9.55
2022-10-31T04:53:12.581Z,9.70
2022-10-31T04:55:39.326Z,8.90
2022-10-31T04:58:06.330Z,9.85
2022-10-31T05:00:33.173Z,10.40
2022-10-31T05:03:00.500Z,10.43
2022-10-31T05:05:30.874Z,9.63
2022-10-31T05:07:57.561Z,10.02
2022-10-31T05:10:26.935Z,10.02
2022-10-31T05:12:59.194Z,10.77
2022-10-31T05:15:27.829Z,11.73
2022-10-31T05:17:55.426Z,10.57
2022-10-31T05:20:25.137Z,10.68
2022-10-31T05:22:54.463Z,10.23
2022-10-31T05:25:23.037Z,10.45
2022-10-31T05:27:51.806Z,10.63
2022-10-31T05:30:24.429Z,9.88
2022-10-31T05:32:52.370Z,10.18
2022-10-31T05:35:21.718Z,10.57
2022-10-31T05:37:48.674Z,11.10
2022-10-31T05:40:17.112Z,11.18
2022-10-31T05:42:44.698Z,10.75
2022-10-31T05:45:16.492Z,10.70
2022-10-31T05:47:43.602Z,11.13
2022-10-31T05:50:10.865Z,10.43
2022-10-31T05:52:37.716Z,11.35
2022-10-31T05:55:05.067Z,10.82
2022-10-31T05:57:33.548Z,11.20
2022-10-31T06:00:00.758Z,11.02
2022-10-31T06:02:27.796Z,11.05
2022-10-31T06:04:54.596Z,11.40
2022-10-31T06:07:21.340Z,11.73
2022-10-31T06:09:48.102Z,11.65
2022-10-31T06:12:14.813Z,12.52
2022-10-31T06:14:41.515Z,11.00
2022-10-31T06:17:08.304Z,11.68
2022-10-31T06:19:34.959Z,11.32
2022-10-31T06:22:01.673Z,12.07
2022-10-31T06:24:28.478Z,11.82
2022-10-31T06:26:55.229Z,11.93
2022-10-31T06:29:22.085Z,12.18
2022-10-31T06:31:48.792Z,11.52
2022-10-31T06:34:15.474Z,12.15
2022-10-31T06:36:42.219Z,11.95
2022-10-31T06:39:10.282Z,11.60
2022-10-31T06:41:37.586Z,11.80
2022-10-31T06:44:06.585Z,12.10
2022-10-31T06:46:35.638Z,12.68
2022-10-31T06:49:02.335Z,12.57
2022-10-31T06:51:28.946Z,12.18
2022-10-31T06:53:55.644Z,12.68
2022-10-31T06:56:22.338Z,13.38
2022-10-31T06:58:49.074Z,13.32
2022-10-31T07:01:15.924Z,13.07
2022-10-31T07:03:42.747Z,12.75
2022-10-31T07:06:09.390Z,13.63
2022-10-31T07:08:36.052Z,13.57
2022-10-31T07:11:02.753Z,13.52
2022-10-31T07:13:29.500Z,13.18
2022-10-31T07:16:02.491Z,13.98
2022-10-31T07:18:29.610Z,13.38
2022-10-31T07:20:56.295Z,13.95
2022-10-31T07:23:23.350Z,14.18
2022-10-31T07:25:55.074Z,13.55
2022-10-31T07:28:21.750Z,14.07
2022-10-31T07:30:56.617Z,14.45
2022-10-31T07:33:24.337Z,14.63
2022-10-31T07:35:51.028Z,15.48
2022-10-31T07:38:17.740Z,15.35
2022-10-31T07:40:44.705Z,15.43
2022-10-31T07:43:14.529Z,15.85
2022-10-31T07:45:41.771Z,15.30
2022-10-31T07:48:08.536Z,16.23
2022-10-31T07:50:35.579Z,16.80
2022-10-31T07:53:05.779Z,15.77
2022-10-31T07:55:33.342Z,16.27
2022-10-31T07:58:08.188Z,16.67
2022-10-31T08:00:36.714Z,17.17
2022-10-31T08:03:06.548Z,17.27
2022-10-31T08:05:34.227Z,17.42
2022-10-31T08:08:01.522Z,17.23
2022-10-31T08:10:28.883Z,17.55
2022-10-31T08:13:11.045Z,18.25
2022-10-31T08:15:40.338Z,16.88
2022-10-31T08:18:10.709Z,17.02
2022-10-31T08:20:37.449Z,17.50
2022-10-31T08:23:06.078Z,16.40
2022-10-31T08:25:38.365Z,17.73
2022-10-31T08:28:06.934Z,16.88
2022-10-31T08:30:36.221Z,16.58
2022-10-31T08:33:06.064Z,18.50
2022-10-31T08:35:33.549Z,17.35
2022-10-31T08:38:00.821Z,17.83
2022-10-31T08:40:29.603Z,17.10
2022-10-31T08:42:58.484Z,17.88
2022-10-31T08:45:25.732Z,16.95
2022-10-31T08:47:52.523Z,16.67
2022-10-31T08:50:19.626Z,18.25
2022-10-31T08:53:04.281Z,18.73
2022-10-31T08:55:33.550Z,16.48
2022-10-31T08:58:00.754Z,16.83
2022-10-31T09:00:27.740Z,17.17
2022-10-31T09:03:02.670Z,17.73
2022-10-31T09:05:29.901Z,18.60
2022-10-31T09:08:00.950Z,19.33
2022-10-31T09:10:29.635Z,17.20
2022-10-31T09:13:01.855Z,17.27
2022-10-31T09:15:29.359Z,16.52
2022-10-31T09:17:56.395Z,16.60
2022-10-31T09:20:23.381Z,15.95
2022-10-31T09:22:57.727Z,16.42
2022-10-31T09:25:24.531Z,17.02
2022-10-31T09:27:51.389Z,15.98
2022-10-31T09:30:18.549Z,16.77
2022-10-31T09:32:45.314Z,16.35
2022-10-31T09:37:38.748Z,16.85
2022-10-31T09:40:05.829Z,15.90
2022-10-31T09:42:54.153Z,15.70
2022-10-31T09:45:40.036Z,13.95
2022-10-31T09:51:00.408Z,14.15
2022-10-31T09:53:44.893Z,12.80
2022-10-31T09:56:16.387Z,13.07
2022-10-31T09:58:46.676Z,15.30
2022-10-31T10:01:42.526Z,13.43
2022-10-31T10:04:27.843Z,12.55
2022-10-31T10:06:54.653Z,12.70
2022-10-31T10:09:25.898Z,13.70
2022-10-31T10:12:10.614Z,11.98
2022-10-31T10:15:01.806Z,12.00
2022-10-31T10:18:01.653Z,12.13
2022-10-31T10:20:57.711Z,13.40
2022-10-31T10:23:30.123Z,11.55
2022-10-31T10:26:14.831Z,11.25
2022-10-31T10:28:44.869Z,12.30
2022-10-31T10:31:25.702Z,13.07
2022-10-31T10:33:52.377Z,12.18
2022-10-31T10:36:43.729Z,11.90
2022-10-31T10:39:21.503Z,11.57
2022-10-31T10:42:08.442Z,11.23
2022-10-31T10:44:59.713Z,11.60
2022-10-31T10:47:41.601Z,11.95
2022-10-31T10:50:21.253Z,11.82
2022-10-31T10:53:01.704Z,11.75
2022-10-31T10:55:59.337Z,12.60
2022-10-31T10:58:26.031Z,11.32
2022-10-31T11:00:56.122Z,12.15
2022-10-31T11:03:22.912Z,11.38
2022-10-31T11:05:59.316Z,11.45
2022-10-31T11:08:28.391Z,10.38
2022-10-31T11:11:26.715Z,10.40
2022-10-31T11:14:06.466Z,8.80
2022-10-31T11:16:41.269Z,9.70
2022-10-31T11:19:28.880Z,8.10
2022-10-31T11:22:06.202Z,8.38
2022-10-31T11:24:40.209Z,8.57
2022-10-31T11:27:23.228Z,7.93
2022-10-31T11:29:58.177Z,8.82
2022-10-31T11:32:28.409Z,7.97
2022-10-31T11:34:58.181Z,7.93
2022-10-31T11:37:31.161Z,6.93
2022-10-31T11:40:01.461Z,8.77
2022-10-31T11:42:36.452Z,7.57
2022-10-31T11:45:14.757Z,8.48
2022-10-31T11:47:48.579Z,6.63
2022-10-31T11:50:42.421Z,6.95
2022-10-31T11:53:18.513Z,6.75
2022-10-31T11:55:47.002Z,6.22
2022-10-31T11:58:25.241Z,7.57
2022-10-31T12:00:55.550Z,6.50
2022-10-31T12:03:33.233Z,7.20
2022-10-31T12:06:06.175Z,6.97
2022-10-31T12:08:36.547Z,7.28
2022-10-31T12:11:18.554Z,6.20
2022-10-31T12:14:04.058Z,5.57
2022-10-31T12:17:00.938Z,6.15
2022-10-31T12:19:50.055Z,5.78
2022-10-31T12:22:19.484Z,5.50
2022-10-31T12:25:08.764Z,5.93
2022-10-31T12:27:48.408Z,5.22
2022-10-31T12:30:42.029Z,6.00
2022-10-31T12:33:36.286Z,5.13
2022-10-31T12:36:21.646Z,5.05
2022-10-31T12:39:14.474Z,5.15
2022-10-31T12:42:07.436Z,5.57
2022-10-31T12:44:55.117Z,4.95
2022-10-31T12:47:37.095Z,5.35
2022-10-31T12:50:25.733Z,4.50
2022-10-31T12:53:01.607Z,5.15
2022-10-31T12:56:06.556Z,4.90
2022-10-31T12:58:36.477Z,5.37
2022-10-31T13:01:33.563Z,4.88
2022-10-31T13:04:20.689Z,3.72
2022-10-31T13:06:56.814Z,3.60
2022-10-31T13:10:03.944Z,4.60
2022-10-31T13:12:36.489Z,4.32
2022-10-31T13:15:14.517Z,4.38
2022-10-31T13:17:49.742Z,4.50
2022-10-31T13:20:35.110Z,3.78
2022-10-31T13:23:49.732Z,4.00
2022-10-31T13:26:37.847Z,4.60
2022-10-31T13:29:34.568Z,4.32
2022-10-31T13:32:05.786Z,4.10
2022-10-31T13:34:42.909Z,4.32
2022-10-31T13:37:32.118Z,4.13
2022-10-31T13:40:10.444Z,3.92
2022-10-31T13:42:42.882Z,3.80
2022-10-31T13:45:19.036Z,4.85
2022-10-31T13:48:01.258Z,5.13
2022-10-31T13:50:30.927Z,3.53
2022-10-31T13:53:37.301Z,3.78
2022-10-31T13:56:09.693Z,4.07
2022-10-31T13:58:37.096Z,4.30
2022-10-31T14:01:06.693Z,3.67
2022-10-31T14:04:04.574Z,4.07
2022-10-31T14:06:35.083Z,3.88
2022-10-31T14:09:02.835Z,3.60
2022-10-31T14:11:34.500Z,3.92
2022-10-31T14:14:04.077Z,3.90
2022-10-31T14:16:32.845Z,4.22
2022-10-31T14:19:06.104Z,4.25
2022-10-31T14:21:40.835Z,3.78
2022-10-31T14:24:33.083Z,4.65
2022-10-31T14:27:02.950Z,4.07
2022-10-31T14:29:32.349Z,3.92
2022-10-31T14:31:59.322Z,3.97
2022-10-31T14:34:28.045Z,3.95
2022-10-31T14:37:13.929Z,4.25
2022-10-31T14:40:05.563Z,3.97
2022-10-31T14:43:09.992Z,4.10
2022-10-31T14:45:45.638Z,4.05
2022-10-31T14:48:55.111Z,4.43
2022-10-31T14:51:36.015Z,3.70
2022-10-31T14:54:05.395Z,4.00
2022-10-31T14:56:35.382Z,4.40
2022-10-31T14:59:07.571Z,4.90
2022-10-31T15:01:39.717Z,4.65
2022-10-31T15:04:24.670Z,4.35
2022-10-31T15:07:20.343Z,4.80
2022-10-31T15:10:07.296Z,4.10
2022-10-31T15:12:39.376Z,4.20
2022-10-31T15:15:19.810Z,4.05
2022-10-31T15:17:55.176Z,4.57
2022-10-31T15:22:51.555Z,4.35
2022-10-31T15:25:24.366Z,4.47
2022-10-31T15:27:52.190Z,4.53
2022-10-31T15:30:27.591Z,3.65
2022-10-31T15:35:31.333Z,4.10
2022-10-31T15:38:00.530Z,4.00
2022-10-31T15:40:29.090Z,4.10
2022-10-31T15:43:05.490Z,6.63
2022-10-31T15:45:32.680Z,5.38
2022-10-31T15:48:12.431Z,5.30
2022-10-31T15:50:54.477Z,4.72
2022-10-31T15:53:23.386Z,4.32
2022-10-31T15:55:59.078Z,4.07
2022-10-31T15:58:26.835Z,4.72
2022-10-31T16:01:19.347Z,4.30
2022-10-31T16:03:57.872Z,4.47
2022-10-31T16:06:25.260Z,4.18
2022-10-31T16:08:52.955Z,4.53
2022-10-31T16:11:34.654Z,4.30
2022-10-31T16:14:10.690Z,4.25
2022-10-31T16:16:53.479Z,4.05
2022-10-31T16:19:34.678Z,3.72
2022-10-31T16:22:13.092Z,4.18
2022-10-31T16:25:16.252Z,4.82
2022-10-31T16:27:54.269Z,4.10
2022-10-31T16:30:30.585Z,3.85
2022-10-31T16:33:00.857Z,4.05
2022-10-31T16:35:38.608Z,4.35
2022-10-31T16:38:06.455Z,4.65
2022-10-31T16:40:33.917Z,4.07
2022-10-31T16:43:01.586Z,5.00
2022-10-31T16:45:31.048Z,5.40
2022-10-31T16:48:12.375Z,4.40
2022-10-31T16:50:39.409Z,4.75
2022-10-31T16:53:13.761Z,4.88
2022-10-31T16:55:57.420Z,5.03
2022-10-31T16:58:26.845Z,5.30
2022-10-31T17:00:54.171Z,5.40
2022-10-31T17:03:21.332Z,5.38
2022-10-31T17:05:48.140Z,5.40
2022-10-31T17:08:14.981Z,5.70
2022-10-31T17:10:43.725Z,5.32
2022-10-31T17:13:16.593Z,5.47
2022-10-31T17:15:46.653Z,6.50
2022-10-31T17:18:14.918Z,5.82
2022-10-31T17:20:43.033Z,5.90
2022-10-31T17:23:14.067Z,6.07
2022-10-31T17:25:41.151Z,5.60
2022-10-31T17:28:11.447Z,6.20
2022-10-31T17:30:38.309Z,5.50
2022-10-31T17:33:05.061Z,6.88
2022-10-31T17:35:31.734Z,5.57
2022-10-31T17:37:58.577Z,5.35
2022-10-31T17:40:25.297Z,6.50
2022-10-31T17:42:56.855Z,5.38
2022-10-31T17:45:25.996Z,5.85
2022-10-31T17:47:53.869Z,7.47
2022-10-31T17:50:23.438Z,7.00
2022-10-31T17:52:50.493Z,5.70
2022-10-31T17:55:17.890Z,6.00
2022-10-31T17:57:45.726Z,6.10
2022-10-31T18:00:15.883Z,6.10
2022-10-31T18:02:42.799Z,6.50
2022-10-31T18:05:10.067Z,5.93
2022-10-31T18:07:36.740Z,6.10
2022-10-31T18:10:03.615Z,6.50
2022-10-31T18:12:32.270Z,6.43
2022-10-31T18:14:58.957Z,6.90
2022-10-31T18:17:25.938Z,6.35
2022-10-31T18:19:52.646Z,7.18
2022-10-31T18:22:19.510Z,7.68
2022-10-31T18:24:46.169Z,6.10
2022-10-31T18:27:12.786Z,6.32
2022-10-31T18:29:39.455Z,7.00
2022-10-31T18:32:09.518Z,6.57
2022-10-31T18:34:36.725Z,6.05
2022-10-31T18:37:03.709Z,6.78
2022-10-31T18:39:30.488Z,6.47
2022-10-31T18:41:57.362Z,7.57
2022-10-31T18:44:24.609Z,7.00
2022-10-31T18:46:51.383Z,7.40
2022-10-31T18:49:22.554Z,6.95
2022-10-31T18:51:50.570Z,7.07
2022-10-31T18:54:17.430Z,7.28
2022-10-31T18:56:44.477Z,7.70
2022-10-31T18:59:12.244Z,8.57
2022-10-31T19:01:39.859Z,10.18
2022-10-31T19:04:07.196Z,11.70
2022-10-31T19:06:34.007Z,12.18
2022-10-31T19:09:04.417Z,12.02
2022-10-31T19:11:34.981Z,13.70
2022-10-31T19:14:02.389Z,15.98
2022-10-31T19:16:29.483Z,15.73
2022-10-31T19:18:57.609Z,16.58
2022-10-31T19:21:24.599Z,16.00
2022-10-31T19:23:53.473Z,17.83
2022-10-31T19:26:20.651Z,17.60
2022-10-31T19:28:47.670Z,17.98
2022-10-31T19:31:14.514Z,18.13
2022-10-31T19:33:41.255Z,21.55
2022-10-31T19:36:10.658Z,19.35
2022-10-31T19:38:39.874Z,21.42
2022-10-31T19:41:15.502Z,21.40
2022-10-31T19:43:42.358Z,19.42
2022-10-31T19:46:22.433Z,19.67
2022-10-31T19:48:59.338Z,19.25
2022-10-31T19:51:26.020Z,18.25
2022-10-31T19:53:54.021Z,17.70
2022-10-31T19:56:22.898Z,19.75
2022-10-31T19:58:49.751Z,20.85
2022-10-31T20:01:21.906Z,21.27
2022-10-31T20:03:49.942Z,18.27
2022-10-31T20:06:24.278Z,17.35
2022-10-31T20:08:52.319Z,16.20
2022-10-31T20:11:19.463Z,16.08
2022-10-31T20:13:46.187Z,15.80
2022-10-31T20:16:15.025Z,14.48
2022-10-31T20:18:42.732Z,14.20
2022-10-31T20:21:18.467Z,14.77
2022-10-31T20:23:47.371Z,14.30
2022-10-31T20:26:19.698Z,13.15
2022-10-31T20:28:46.726Z,12.73
2022-10-31T20:31:17.508Z,12.95
2022-10-31T20:33:44.791Z,13.13
2022-10-31T20:36:14.510Z,13.35
2022-10-31T20:38:42.251Z,12.25
2022-10-31T20:41:10.521Z,12.57
2022-10-31T20:43:38.288Z,13.52
2022-10-31T20:46:07.669Z,11.73
2022-10-31T20:48:34.670Z,11.73
2022-10-31T20:51:04.484Z,11.90
2022-10-31T20:53:31.624Z,12.40
2022-10-31T20:56:13.364Z,12.60
2022-10-31T20:58:41.432Z,11.57
2022-10-31T21:01:14.396Z,11.02
2022-10-31T21:03:41.680Z,11.48
2022-10-31T21:06:09.194Z,12.25
2022-10-31T21:08:36.843Z,11.90
2022-10-31T21:11:09.826Z,12.18
2022-10-31T21:13:41.962Z,11.90
2022-10-31T21:16:12.070Z,10.88
2022-10-31T21:18:41.045Z,9.73
2022-10-31T21:21:13.740Z,10.45
2022-10-31T21:23:41.707Z,12.30
2022-10-31T21:26:11.932Z,10.35
2022-10-31T21:28:38.868Z,11.93
2022-10-31T21:31:08.260Z,11.57
2022-10-31T21:33:35.720Z,11.38
2022-10-31T21:36:03.582Z,11.35
2022-10-31T21:38:30.429Z,13.00
2022-10-31T21:41:09.002Z,13.75
2022-10-31T21:43:37.340Z,25.23
2022-10-31T21:46:05.908Z,23.30
2022-10-31T21:48:33.181Z,23.88
2022-10-31T21:51:09.029Z,39.20
2022-10-31T21:53:55.585Z,40.20
2022-10-31T21:56:23.850Z,41.83
2022-10-31T21:58:51.861Z,47.78
2022-10-31T22:01:19.478Z,45.47
2022-10-31T22:03:46.731Z,42.47
2022-10-31T22:06:14.334Z,45.30
2022-10-31T22:08:41.332Z,42.03
2022-10-31T22:11:10.677Z,43.08
2022-10-31T22:13:37.574Z,49.47
2022-10-31T22:16:19.158Z,47.00
2022-10-31T22:18:46.515Z,43.45
2022-10-31T22:21:18.983Z,39.45
2022-10-31T22:23:50.522Z,36.83
2022-10-31T22:26:17.653Z,33.80
2022-10-31T22:28:47.802Z,33.42
2022-10-31T22:31:19.717Z,32.33
2022-10-31T22:33:47.364Z,32.38
2022-10-31T22:36:17.461Z,34.60
2022-10-31T22:38:45.355Z,38.03
2022-10-31T22:41:16.781Z,36.63
2022-10-31T22:43:43.763Z,36.13
2022-10-31T22:46:13.507Z,34.90
2022-10-31T22:48:44.085Z,32.78
2022-10-31T22:51:19.688Z,33.20
2022-10-31T22:56:16.868Z,32.97
2022-10-31T22:58:44.074Z,34.35
2022-10-31T23:01:19.445Z,34.10
2022-10-31T23:03:46.856Z,37.33
2022-10-31T23:06:25.985Z,37.65
2022-10-31T23:08:53.354Z,40.53
2022-10-31T23:11:22.772Z,41.92
2022-10-31T23:14:15.907Z,45.63
2022-10-31T23:16:54.124Z,43.90
2022-10-31T23:19:27.814Z,44.78
2022-10-31T23:22:00.127Z,43.75
2022-10-31T23:24:41.521Z,40.22
2022-10-31T23:27:22.633Z,42.25
2022-10-31T23:29:59.731Z,41.03
2022-10-31T23:32:35.749Z,39.17
2022-10-31T23:35:05.400Z,36.30
2022-10-31T23:37:34.058Z,36.10
2022-10-31T23:40:00.950Z,34.15
2022-10-31T23:42:28.685Z,35.25
2022-10-31T23:44:55.549Z,31.17
2022-10-31T23:47:22.685Z,28.90
2022-10-31T23:49:49.689Z,30.60
2022-10-31T23:52:16.993Z,25.13
2022-10-31T23:54:43.688Z,26.13
2022-10-31T23:57:12.119Z,25.25
2022-10-31T23:59:38.863Z,25.92
